sensor_id;sensor_type;location;lat;lon;timestamp;pressure;altitude;pressure_sealevel;temperature;humidity
63819;BME280;49970;54.976;73.248;2023-05-22T00:00:24;101228.28;;;17.31;56.22
63819;BME280;49970;54.976;73.248;2023-05-22T00:02:51;101227.44;;;17.31;56.09
63819;BME280;49970;54.976;73.248;2023-05-22T00:05:18;101231.22;;;17.28;56.26
63819;BME280;49970;54.976;73.248;2023-05-22T00:07:45;101228.69;;;17.27;56.16
63819;BME280;49970;54.976;73.248;2023-05-22T00:10:11;101234.75;;;17.29;56.21
63819;BME280;49970;54.976;73.248;2023-05-22T00:12:38;101241.53;;;17.33;56.01
63819;BME280;49970;54.976;73.248;2023-05-22T00:15:04;101239.59;;;17.35;56.03
63819;BME280;49970;54.976;73.248;2023-05-22T00:17:31;101247.72;;;17.33;56.40
63819;BME280;49970;54.976;73.248;2023-05-22T00:19:58;101246.50;;;17.37;56.16
63819;BME280;49970;54.976;73.248;2023-05-22T00:22:32;101248.47;;;17.35;56.48
63819;BME280;49970;54.976;73.248;2023-05-22T00:25:02;101254.78;;;17.34;56.55
63819;BME280;49970;54.976;73.248;2023-05-22T00:27:29;101251.25;;;17.34;56.91
63819;BME280;49970;54.976;73.248;2023-05-22T00:29:55;101255.66;;;17.35;56.80
63819;BME280;49970;54.976;73.248;2023-05-22T00:32:21;101260.88;;;17.36;56.51
63819;BME280;49970;54.976;73.248;2023-05-22T00:34:47;101270.00;;;17.34;56.78
63819;BME280;49970;54.976;73.248;2023-05-22T00:37:15;101267.47;;;17.32;56.99
63819;BME280;49970;54.976;73.248;2023-05-22T00:39:41;101271.97;;;17.32;56.75
63819;BME280;49970;54.976;73.248;2023-05-22T00:42:07;101273.66;;;17.33;56.63
63819;BME280;49970;54.976;73.248;2023-05-22T00:44:33;101279.63;;;17.36;57.10
63819;BME280;49970;54.976;73.248;2023-05-22T00:47:00;101277.66;;;17.38;57.08
63819;BME280;49970;54.976;73.248;2023-05-22T00:49:26;101291.19;;;17.37;57.17
63819;BME280;49970;54.976;73.248;2023-05-22T00:51:52;101284.59;;;17.41;57.60
63819;BME280;49970;54.976;73.248;2023-05-22T00:54:19;101289.56;;;17.46;57.42
63819;BME280;49970;54.976;73.248;2023-05-22T00:56:46;101288.47;;;17.48;57.53
63819;BME280;49970;54.976;73.248;2023-05-22T00:59:13;101296.34;;;17.50;57.94
63819;BME280;49970;54.976;73.248;2023-05-22T01:01:40;101297.19;;;17.50;58.07
63819;BME280;49970;54.976;73.248;2023-05-22T01:04:10;101297.09;;;17.52;57.80
63819;BME280;49970;54.976;73.248;2023-05-22T01:06:38;101302.91;;;17.57;58.20
63819;BME280;49970;54.976;73.248;2023-05-22T01:09:06;101304.59;;;17.58;58.04
63819;BME280;49970;54.976;73.248;2023-05-22T01:14:33;101311.91;;;17.56;57.96
63819;BME280;49970;54.976;73.248;2023-05-22T01:17:27;101312.47;;;17.59;57.63
63819;BME280;49970;54.976;73.248;2023-05-22T01:20:01;101314.50;;;17.67;57.42
63819;BME280;49970;54.976;73.248;2023-05-22T01:28:40;101316.31;;;17.78;56.90
63819;BME280;49970;54.976;73.248;2023-05-22T01:31:24;101319.84;;;17.78;57.19
63819;BME280;49970;54.976;73.248;2023-05-22T01:33:53;101314.94;;;17.83;57.69
63819;BME280;49970;54.976;73.248;2023-05-22T01:36:24;101321.75;;;17.87;57.17
63819;BME280;49970;54.976;73.248;2023-05-22T01:38:54;101319.06;;;17.87;57.10
63819;BME280;49970;54.976;73.248;2023-05-22T01:41:21;101327.53;;;17.92;57.44
63819;BME280;49970;54.976;73.248;2023-05-22T01:43:48;101327.44;;;17.94;57.34
63819;BME280;49970;54.976;73.248;2023-05-22T01:46:14;101332.41;;;17.99;57.08
63819;BME280;49970;54.976;73.248;2023-05-22T01:48:40;101329.31;;;18.03;57.21
63819;BME280;49970;54.976;73.248;2023-05-22T01:51:14;101329.31;;;18.03;57.59
63819;BME280;49970;54.976;73.248;2023-05-22T01:53:54;101330.50;;;18.10;57.63
63819;BME280;49970;54.976;73.248;2023-05-22T01:56:26;101327.00;;;18.20;57.56
63819;BME280;49970;54.976;73.248;2023-05-22T01:59:11;101334.06;;;18.21;56.84
63819;BME280;49970;54.976;73.248;2023-05-22T02:01:40;101348.91;;;18.25;56.47
63819;BME280;49970;54.976;73.248;2023-05-22T02:04:09;101338.03;;;18.26;56.59
63819;BME280;49970;54.976;73.248;2023-05-22T02:06:36;101332.41;;;18.29;56.17
63819;BME280;49970;54.976;73.248;2023-05-22T02:09:03;101343.47;;;18.36;56.27
63819;BME280;49970;54.976;73.248;2023-05-22T02:11:32;101340.22;;;18.42;56.37
63819;BME280;49970;54.976;73.248;2023-05-22T02:14:00;101347.28;;;18.43;56.08
63819;BME280;49970;54.976;73.248;2023-05-22T02:16:28;101342.09;;;18.51;55.90
63819;BME280;49970;54.976;73.248;2023-05-22T02:18:59;101352.75;;;18.62;55.36
63819;BME280;49970;54.976;73.248;2023-05-22T02:21:34;101347.69;;;18.69;55.42
63819;BME280;49970;54.976;73.248;2023-05-22T02:24:21;101347.59;;;18.80;54.99
63819;BME280;49970;54.976;73.248;2023-05-22T02:28:12;101353.88;;;19.00;55.11
63819;BME280;49970;54.976;73.248;2023-05-22T02:32:04;101358.84;;;19.24;54.92
63819;BME280;49970;54.976;73.248;2023-05-22T02:35:56;101370.91;;;19.49;55.17
63819;BME280;49970;54.976;73.248;2023-05-22T02:39:47;101360.84;;;19.80;53.29
63819;BME280;49970;54.976;73.248;2023-05-22T02:44:03;101365.69;;;20.33;53.05
63819;BME280;49970;54.976;73.248;2023-05-22T02:47:54;101370.28;;;20.60;52.11
63819;BME280;49970;54.976;73.248;2023-05-22T02:51:46;101372.31;;;20.86;51.22
63819;BME280;49970;54.976;73.248;2023-05-22T02:55:42;101377.59;;;21.23;51.07
63819;BME280;49970;54.976;73.248;2023-05-22T02:59:34;101371.81;;;21.46;49.83
63819;BME280;49970;54.976;73.248;2023-05-22T03:03:25;101377.72;;;21.49;48.62
63819;BME280;49970;54.976;73.248;2023-05-22T03:07:16;101374.41;;;21.55;48.30
63819;BME280;49970;54.976;73.248;2023-05-22T03:11:32;101373.06;;;21.77;48.60
63819;BME280;49970;54.976;73.248;2023-05-22T03:15:23;101374.50;;;22.07;48.08
63819;BME280;49970;54.976;73.248;2023-05-22T03:19:12;101369.19;;;22.42;46.67
63819;BME280;49970;54.976;73.248;2023-05-22T03:23:07;101366.13;;;22.45;46.66
63819;BME280;49970;54.976;73.248;2023-05-22T03:26:58;101368.72;;;22.54;47.12
63819;BME280;49970;54.976;73.248;2023-05-22T03:30:49;101365.13;;;22.80;46.63
63819;BME280;49970;54.976;73.248;2023-05-22T03:34:24;101367.84;;;22.88;46.58
63819;BME280;49970;54.976;73.248;2023-05-22T03:38:15;101363.69;;;22.94;45.87
63819;BME280;49970;54.976;73.248;2023-05-22T03:42:06;101369.81;;;23.04;45.00
63819;BME280;49970;54.976;73.248;2023-05-22T03:45:57;101368.19;;;23.44;45.03
63819;BME280;49970;54.976;73.248;2023-05-22T03:53:38;101357.00;;;23.30;44.62
63819;BME280;49970;54.976;73.248;2023-05-22T03:57:29;101347.38;;;23.36;44.48
63819;BME280;49970;54.976;73.248;2023-05-22T04:01:20;101355.34;;;23.38;42.94
63819;BME280;49970;54.976;73.248;2023-05-22T04:05:11;101350.25;;;23.34;43.84
63819;BME280;49970;54.976;73.248;2023-05-22T04:09:30;101351.09;;;23.35;43.49
63819;BME280;49970;54.976;73.248;2023-05-22T04:13:21;101353.81;;;23.35;43.80
63819;BME280;49970;54.976;73.248;2023-05-22T04:17:12;101355.00;;;23.49;42.71
63819;BME280;49970;54.976;73.248;2023-05-22T04:21:29;101358.59;;;23.74;42.11
63819;BME280;49970;54.976;73.248;2023-05-22T04:25:22;101356.03;;;24.05;41.07
63819;BME280;49970;54.976;73.248;2023-05-22T04:29:13;101354.97;;;24.30;40.05
63819;BME280;49970;54.976;73.248;2023-05-22T04:36:38;101362.34;;;24.61;39.97
63819;BME280;49970;54.976;73.248;2023-05-22T04:39:04;101364.16;;;24.69;39.63
63819;BME280;49970;54.976;73.248;2023-05-22T04:41:30;101368.53;;;24.78;40.47
63819;BME280;49970;54.976;73.248;2023-05-22T04:43:57;101370.84;;;24.89;40.06
63819;BME280;49970;54.976;73.248;2023-05-22T04:46:25;101365.03;;;25.00;40.69
63819;BME280;49970;54.976;73.248;2023-05-22T04:48:53;101363.81;;;25.03;40.25
63819;BME280;49970;54.976;73.248;2023-05-22T04:51:20;101364.72;;;24.95;40.24
63819;BME280;49970;54.976;73.248;2023-05-22T04:53:48;101369.88;;;24.82;40.14
63819;BME280;49970;54.976;73.248;2023-05-22T04:56:16;101362.44;;;24.76;40.99
63819;BME280;49970;54.976;73.248;2023-05-22T04:58:43;101362.78;;;24.73;40.16
63819;BME280;49970;54.976;73.248;2023-05-22T05:01:09;101357.91;;;24.68;40.85
63819;BME280;49970;54.976;73.248;2023-05-22T05:03:36;101356.38;;;24.66;40.11
63819;BME280;49970;54.976;73.248;2023-05-22T05:06:02;101357.41;;;24.65;40.04
63819;BME280;49970;54.976;73.248;2023-05-22T05:08:29;101354.06;;;24.54;39.43
63819;BME280;49970;54.976;73.248;2023-05-22T05:10:55;101352.53;;;24.60;39.89
63819;BME280;49970;54.976;73.248;2023-05-22T05:13:22;101360.81;;;24.67;39.99
63819;BME280;49970;54.976;73.248;2023-05-22T05:15:48;101360.94;;;24.73;39.33
63819;BME280;49970;54.976;73.248;2023-05-22T05:18:14;101355.25;;;24.91;39.90
63819;BME280;49970;54.976;73.248;2023-05-22T05:20:42;101357.75;;;25.01;39.33
63819;BME280;49970;54.976;73.248;2023-05-22T05:23:08;101352.34;;;25.01;40.00
63819;BME280;49970;54.976;73.248;2023-05-22T05:25:35;101353.41;;;24.92;39.79
63819;BME280;49970;54.976;73.248;2023-05-22T05:28:04;101350.50;;;24.93;39.44
63819;BME280;49970;54.976;73.248;2023-05-22T05:30:38;101349.66;;;24.93;39.64
63819;BME280;49970;54.976;73.248;2023-05-22T05:33:22;101354.00;;;25.02;39.48
63819;BME280;49970;54.976;73.248;2023-05-22T05:36:18;101357.69;;;25.17;38.29
63819;BME280;49970;54.976;73.248;2023-05-22T05:38:45;101359.50;;;25.25;38.07
63819;BME280;49970;54.976;73.248;2023-05-22T05:41:13;101359.31;;;25.26;38.39
63819;BME280;49970;54.976;73.248;2023-05-22T05:43:41;101365.81;;;25.40;38.27
63819;BME280;49970;54.976;73.248;2023-05-22T05:46:08;101339.19;;;25.44;37.79
63819;BME280;49970;54.976;73.248;2023-05-22T05:48:35;101354.78;;;25.65;38.55
63819;BME280;49970;54.976;73.248;2023-05-22T05:51:01;101352.84;;;25.73;38.39
63819;BME280;49970;54.976;73.248;2023-05-22T05:53:32;101351.81;;;25.74;37.83
63819;BME280;49970;54.976;73.248;2023-05-22T05:55:59;101342.13;;;25.57;36.90
63819;BME280;49970;54.976;73.248;2023-05-22T05:58:41;101345.88;;;25.33;37.74
63819;BME280;49970;54.976;73.248;2023-05-22T06:01:33;101358.47;;;25.26;37.22
63819;BME280;49970;54.976;73.248;2023-05-22T06:04:04;101348.88;;;25.07;37.59
63819;BME280;49970;54.976;73.248;2023-05-22T06:06:36;101353.16;;;25.01;37.79
63819;BME280;49970;54.976;73.248;2023-05-22T06:09:09;101348.94;;;24.99;38.44
63819;BME280;49970;54.976;73.248;2023-05-22T06:11:55;101353.16;;;25.09;37.93
63819;BME280;49970;54.976;73.248;2023-05-22T06:14:35;101343.03;;;25.26;37.90
63819;BME280;49970;54.976;73.248;2023-05-22T06:17:34;101344.06;;;25.48;38.03
63819;BME280;49970;54.976;73.248;2023-05-22T06:21:26;101338.44;;;25.50;38.41
63819;BME280;49970;54.976;73.248;2023-05-22T06:25:00;101334.78;;;25.43;38.23
63819;BME280;49970;54.976;73.248;2023-05-22T06:27:29;101332.91;;;25.43;38.10
63819;BME280;49970;54.976;73.248;2023-05-22T06:29:55;101330.41;;;25.42;38.73
63819;BME280;49970;54.976;73.248;2023-05-22T06:32:22;101319.47;;;25.50;38.86
63819;BME280;49970;54.976;73.248;2023-05-22T06:34:52;101323.91;;;25.66;38.66
63819;BME280;49970;54.976;73.248;2023-05-22T06:37:20;101323.50;;;25.77;36.89
63819;BME280;49970;54.976;73.248;2023-05-22T06:39:48;101317.22;;;25.76;37.00
63819;BME280;49970;54.976;73.248;2023-05-22T06:42:46;101334.22;;;25.70;35.86
63819;BME280;49970;54.976;73.248;2023-05-22T06:45:48;101325.63;;;25.67;36.13
63819;BME280;49970;54.976;73.248;2023-05-22T06:48:18;101322.59;;;25.62;36.23
63819;BME280;49970;54.976;73.248;2023-05-22T06:50:59;101318.88;;;25.63;36.20
63819;BME280;49970;54.976;73.248;2023-05-22T06:53:25;101324.16;;;25.56;35.87
63819;BME280;49970;54.976;73.248;2023-05-22T06:55:52;101321.94;;;25.59;36.25
63819;BME280;49970;54.976;73.248;2023-05-22T06:58:27;101323.91;;;25.66;36.06
63819;BME280;49970;54.976;73.248;2023-05-22T07:00:58;101313.81;;;25.74;36.20
63819;BME280;49970;54.976;73.248;2023-05-22T07:03:36;101312.66;;;25.92;36.22
63819;BME280;49970;54.976;73.248;2023-05-22T07:06:21;101313.44;;;26.00;36.92
63819;BME280;49970;54.976;73.248;2023-05-22T07:08:48;101323.66;;;26.13;37.40
63819;BME280;49970;54.976;73.248;2023-05-22T07:11:15;101317.47;;;26.04;36.42
63819;BME280;49970;54.976;73.248;2023-05-22T07:13:42;101316.41;;;25.91;36.11
63819;BME280;49970;54.976;73.248;2023-05-22T07:16:08;101315.66;;;25.82;36.44
63819;BME280;49970;54.976;73.248;2023-05-22T07:18:35;101323.50;;;25.77;36.19
63819;BME280;49970;54.976;73.248;2023-05-22T07:21:01;101322.22;;;25.65;36.13
63819;BME280;49970;54.976;73.248;2023-05-22T07:23:30;101323.19;;;25.49;35.81
63819;BME280;49970;54.976;73.248;2023-05-22T07:25:56;101326.72;;;25.34;36.31
63819;BME280;49970;54.976;73.248;2023-05-22T07:28:29;101329.34;;;25.20;36.98
63819;BME280;49970;54.976;73.248;2023-05-22T07:31:02;101329.41;;;25.12;36.98
63819;BME280;49970;54.976;73.248;2023-05-22T07:33:29;101319.63;;;25.02;37.00
63819;BME280;49970;54.976;73.248;2023-05-22T07:35:56;101325.75;;;24.96;37.64
63819;BME280;49970;54.976;73.248;2023-05-22T07:38:22;101323.06;;;24.96;38.23
63819;BME280;49970;54.976;73.248;2023-05-22T07:40:56;101326.94;;;24.94;38.31
63819;BME280;49970;54.976;73.248;2023-05-22T07:43:23;101320.34;;;24.96;37.35
63819;BME280;49970;54.976;73.248;2023-05-22T07:45:50;101321.81;;;24.99;36.89
63819;BME280;49970;54.976;73.248;2023-05-22T07:48:19;101315.75;;;24.97;37.07
63819;BME280;49970;54.976;73.248;2023-05-22T07:50:46;101321.72;;;24.92;36.94
63819;BME280;49970;54.976;73.248;2023-05-22T07:53:14;101320.16;;;24.98;37.09
63819;BME280;49970;54.976;73.248;2023-05-22T07:55:43;101321.34;;;24.95;36.35
63819;BME280;49970;54.976;73.248;2023-05-22T07:58:09;101325.63;;;24.90;36.24
63819;BME280;49970;54.976;73.248;2023-05-22T08:00:39;101319.06;;;24.84;36.60
63819;BME280;49970;54.976;73.248;2023-05-22T08:03:06;101321.56;;;24.85;36.51
63819;BME280;49970;54.976;73.248;2023-05-22T08:05:32;101314.63;;;24.83;36.88
63819;BME280;49970;54.976;73.248;2023-05-22T08:07:59;101317.50;;;24.90;37.05
63819;BME280;49970;54.976;73.248;2023-05-22T08:10:25;101313.75;;;24.91;36.87
63819;BME280;49970;54.976;73.248;2023-05-22T08:12:52;101323.06;;;24.96;37.32
63819;BME280;49970;54.976;73.248;2023-05-22T08:15:19;101320.34;;;24.96;36.97
63819;BME280;49970;54.976;73.248;2023-05-22T08:17:47;101309.84;;;24.93;36.84
63819;BME280;49970;54.976;73.248;2023-05-22T08:20:13;101310.03;;;24.92;37.36
63819;BME280;49970;54.976;73.248;2023-05-22T08:22:39;101310.19;;;24.90;37.18
63819;BME280;49970;54.976;73.248;2023-05-22T08:25:06;101305.31;;;24.85;36.94
63819;BME280;49970;54.976;73.248;2023-05-22T08:27:33;101317.53;;;24.81;36.39
63819;BME280;49970;54.976;73.248;2023-05-22T08:30:01;101305.56;;;24.76;35.99
63819;BME280;49970;54.976;73.248;2023-05-22T08:32:29;101309.28;;;24.75;37.32
63819;BME280;49970;54.976;73.248;2023-05-22T08:34:55;101308.59;;;24.73;36.50
63819;BME280;49970;54.976;73.248;2023-05-22T08:37:21;101314.38;;;24.70;36.57
63819;BME280;49970;54.976;73.248;2023-05-22T08:39:47;101303.22;;;24.65;36.31
63819;BME280;49970;54.976;73.248;2023-05-22T08:42:14;101309.47;;;24.65;36.58
63819;BME280;49970;54.976;73.248;2023-05-22T08:44:40;101305.28;;;24.63;37.15
63819;BME280;49970;54.976;73.248;2023-05-22T08:47:07;101302.56;;;24.63;36.99
63819;BME280;49970;54.976;73.248;2023-05-22T08:49:39;101307.81;;;24.64;37.09
63819;BME280;49970;54.976;73.248;2023-05-22T08:52:13;101306.28;;;24.62;36.76
63819;BME280;49970;54.976;73.248;2023-05-22T08:54:51;101303.94;;;24.58;36.80
63819;BME280;49970;54.976;73.248;2023-05-22T08:57:19;101311.22;;;24.58;37.43
63819;BME280;49970;54.976;73.248;2023-05-22T08:59:46;101300.22;;;24.59;36.98
63819;BME280;49970;54.976;73.248;2023-05-22T09:02:13;101302.25;;;24.57;37.62
63819;BME280;49970;54.976;73.248;2023-05-22T09:04:42;101300.41;;;24.58;37.61
63819;BME280;49970;54.976;73.248;2023-05-22T09:07:08;101302.91;;;24.59;37.79
63819;BME280;49970;54.976;73.248;2023-05-22T09:09:38;101292.63;;;24.55;37.47
63819;BME280;49970;54.976;73.248;2023-05-22T09:12:08;101307.66;;;24.57;37.51
63819;BME280;49970;54.976;73.248;2023-05-22T09:14:44;101307.00;;;24.55;37.62
63819;BME280;49970;54.976;73.248;2023-05-22T09:17:13;101303.44;;;24.55;37.33
63819;BME280;49970;54.976;73.248;2023-05-22T09:19:44;101302.44;;;24.56;37.29
63819;BME280;49970;54.976;73.248;2023-05-22T09:22:11;101308.88;;;24.55;37.62
63819;BME280;49970;54.976;73.248;2023-05-22T09:24:42;101307.34;;;24.52;37.23
63819;BME280;49970;54.976;73.248;2023-05-22T09:27:10;101305.66;;;24.51;38.04
63819;BME280;49970;54.976;73.248;2023-05-22T09:29:50;101294.63;;;24.53;37.82
63819;BME280;49970;54.976;73.248;2023-05-22T09:32:17;101301.94;;;24.52;37.21
63819;BME280;49970;54.976;73.248;2023-05-22T09:34:45;101294.63;;;24.53;37.13
63819;BME280;49970;54.976;73.248;2023-05-22T09:37:20;101294.28;;;24.56;37.18
63819;BME280;49970;54.976;73.248;2023-05-22T09:39:47;101293.56;;;24.62;36.83
63819;BME280;49970;54.976;73.248;2023-05-22T09:42:16;101291.56;;;24.64;37.00
63819;BME280;49970;54.976;73.248;2023-05-22T09:44:47;101292.34;;;24.73;36.86
63819;BME280;49970;54.976;73.248;2023-05-22T09:47:14;101287.78;;;24.73;36.88
63819;BME280;49970;54.976;73.248;2023-05-22T09:49:44;101289.94;;;24.78;36.99
63819;BME280;49970;54.976;73.248;2023-05-22T09:52:11;101290.94;;;24.85;36.63
63819;BME280;49970;54.976;73.248;2023-05-22T09:54:50;101285.16;;;24.88;36.57
63819;BME280;49970;54.976;73.248;2023-05-22T09:57:22;101287.69;;;24.90;36.48
63819;BME280;49970;54.976;73.248;2023-05-22T09:59:50;101286.47;;;24.92;35.77
63819;BME280;49970;54.976;73.248;2023-05-22T10:02:24;101291.38;;;24.97;36.42
63819;BME280;49970;54.976;73.248;2023-05-22T10:04:51;101284.44;;;24.94;35.86
63819;BME280;49970;54.976;73.248;2023-05-22T10:07:21;101289.84;;;24.94;36.42
63819;BME280;49970;54.976;73.248;2023-05-22T10:09:56;101285.47;;;24.93;36.44
63819;BME280;49970;54.976;73.248;2023-05-22T10:12:27;101289.69;;;24.96;36.53
63819;BME280;49970;54.976;73.248;2023-05-22T10:14:57;101279.00;;;24.94;36.96
63819;BME280;49970;54.976;73.248;2023-05-22T10:17:25;101286.09;;;24.95;35.74
63819;BME280;49970;54.976;73.248;2023-05-22T10:19:53;101280.03;;;24.93;36.07
63819;BME280;49970;54.976;73.248;2023-05-22T10:22:20;101282.94;;;24.92;36.69
63819;BME280;49970;54.976;73.248;2023-05-22T10:24:48;101277.13;;;24.95;36.28
63819;BME280;49970;54.976;73.248;2023-05-22T10:27:15;101278.47;;;24.99;36.48
63819;BME280;49970;54.976;73.248;2023-05-22T10:29:48;101282.69;;;25.01;36.42
63819;BME280;49970;54.976;73.248;2023-05-22T10:32:41;101273.53;;;25.02;36.08
63819;BME280;49970;54.976;73.248;2023-05-22T10:35:31;101276.69;;;25.14;36.27
63819;BME280;49970;54.976;73.248;2023-05-22T10:40:34;101281.53;;;25.27;36.00
63819;BME280;49970;54.976;73.248;2023-05-22T10:43:03;101281.16;;;25.30;36.63
63819;BME280;49970;54.976;73.248;2023-05-22T10:45:30;101273.88;;;25.30;36.34
63819;BME280;49970;54.976;73.248;2023-05-22T10:50:29;101283.44;;;25.18;36.34
63819;BME280;49970;54.976;73.248;2023-05-22T10:53:25;101283.31;;;25.12;36.58
63819;BME280;49970;54.976;73.248;2023-05-22T10:55:56;101278.59;;;25.05;36.66
63819;BME280;49970;54.976;73.248;2023-05-22T10:58:33;101277.28;;;25.01;36.74
63819;BME280;49970;54.976;73.248;2023-05-22T11:01:12;101277.63;;;24.98;36.96
63819;BME280;49970;54.976;73.248;2023-05-22T11:06:44;101271.28;;;24.83;36.37
63819;BME280;49970;54.976;73.248;2023-05-22T11:09:33;101283.97;;;24.82;36.80
63819;BME280;49970;54.976;73.248;2023-05-22T11:15:05;101286.75;;;24.74;36.65
63819;BME280;49970;54.976;73.248;2023-05-22T11:17:33;101282.34;;;24.73;36.53
63819;BME280;49970;54.976;73.248;2023-05-22T11:20:04;101282.53;;;24.72;36.44
63819;BME280;49970;54.976;73.248;2023-05-22T11:22:37;101283.06;;;24.67;36.45
63819;BME280;49970;54.976;73.248;2023-05-22T11:25:10;101286.13;;;24.64;36.87
63819;BME280;49970;54.976;73.248;2023-05-22T11:27:37;101277.50;;;24.60;36.57
63819;BME280;49970;54.976;73.248;2023-05-22T11:30:05;101276.66;;;24.60;36.75
63819;BME280;49970;54.976;73.248;2023-05-22T11:32:37;101284.78;;;24.60;36.82
63819;BME280;49970;54.976;73.248;2023-05-22T11:35:04;101278.03;;;24.56;36.57
63819;BME280;49970;54.976;73.248;2023-05-22T11:37:37;101273.47;;;24.56;37.13
63819;BME280;49970;54.976;73.248;2023-05-22T11:40:05;101273.31;;;24.58;37.06
63819;BME280;49970;54.976;73.248;2023-05-22T11:42:32;101275.84;;;24.59;36.92
63819;BME280;49970;54.976;73.248;2023-05-22T11:44:59;101277.50;;;24.60;37.04
63819;BME280;49970;54.976;73.248;2023-05-22T11:47:29;101275.28;;;24.64;37.54
63819;BME280;49970;54.976;73.248;2023-05-22T11:49:56;101274.47;;;24.64;37.39
63819;BME280;49970;54.976;73.248;2023-05-22T11:52:23;101272.25;;;24.67;37.40
63819;BME280;49970;54.976;73.248;2023-05-22T11:54:51;101272.88;;;24.69;37.32
63819;BME280;49970;54.976;73.248;2023-05-22T11:57:18;101270.19;;;24.69;37.37
63819;BME280;49970;54.976;73.248;2023-05-22T11:59:45;101270.53;;;24.66;37.27
63819;BME280;49970;54.976;73.248;2023-05-22T12:02:12;101269.88;;;24.64;37.91
63819;BME280;49970;54.976;73.248;2023-05-22T12:04:39;101275.47;;;24.63;37.77
63819;BME280;49970;54.976;73.248;2023-05-22T12:07:06;101269.38;;;24.60;37.96
63819;BME280;49970;54.976;73.248;2023-05-22T12:09:33;101259.94;;;24.56;37.68
63819;BME280;49970;54.976;73.248;2023-05-22T12:11:59;101270.91;;;24.63;37.70
63819;BME280;49970;54.976;73.248;2023-05-22T12:14:27;101271.06;;;24.62;38.21
63819;BME280;49970;54.976;73.248;2023-05-22T12:16:54;101270.22;;;24.61;38.04
63819;BME280;49970;54.976;73.248;2023-05-22T12:19:20;101271.25;;;24.60;37.96
63819;BME280;49970;54.976;73.248;2023-05-22T12:21:50;101262.09;;;24.61;37.75
63819;BME280;49970;54.976;73.248;2023-05-22T12:24:17;101269.03;;;24.64;37.48
63819;BME280;49970;54.976;73.248;2023-05-22T12:26:49;101266.13;;;24.65;37.27
63819;BME280;49970;54.976;73.248;2023-05-22T12:29:16;101262.59;;;24.65;37.15
63819;BME280;49970;54.976;73.248;2023-05-22T12:31:43;101259.38;;;24.61;37.23
63819;BME280;49970;54.976;73.248;2023-05-22T12:34:11;101261.06;;;24.62;37.05
63819;BME280;49970;54.976;73.248;2023-05-22T12:36:38;101261.25;;;24.60;37.26
63819;BME280;49970;54.976;73.248;2023-05-22T12:39:16;101258.75;;;24.59;37.81
63819;BME280;49970;54.976;73.248;2023-05-22T12:41:43;101260.59;;;24.58;37.70
63819;BME280;49970;54.976;73.248;2023-05-22T12:44:10;101253.66;;;24.56;38.05
63819;BME280;49970;54.976;73.248;2023-05-22T12:46:39;101253.00;;;24.54;37.85
63819;BME280;49970;54.976;73.248;2023-05-22T12:49:05;101258.44;;;24.54;37.81
63819;BME280;49970;54.976;73.248;2023-05-22T12:51:31;101254.19;;;24.51;37.94
63819;BME280;49970;54.976;73.248;2023-05-22T12:53:59;101258.47;;;24.46;37.35
63819;BME280;49970;54.976;73.248;2023-05-22T12:56:26;101256.75;;;24.45;37.61
63819;BME280;49970;54.976;73.248;2023-05-22T12:58:53;101257.13;;;24.42;37.58
63819;BME280;49970;54.976;73.248;2023-05-22T13:01:19;101254.78;;;24.39;37.92
63819;BME280;49970;54.976;73.248;2023-05-22T13:03:46;101259.84;;;24.33;38.12
63819;BME280;49970;54.976;73.248;2023-05-22T13:06:12;101255.44;;;24.32;38.31
63819;BME280;49970;54.976;73.248;2023-05-22T13:08:38;101253.25;;;24.28;37.69
63819;BME280;49970;54.976;73.248;2023-05-22T13:11:05;101267.16;;;24.25;37.85
63819;BME280;49970;54.976;73.248;2023-05-22T13:13:31;101253.97;;;24.22;38.35
63819;BME280;49970;54.976;73.248;2023-05-22T13:15:57;101255.84;;;24.21;38.10
63819;BME280;49970;54.976;73.248;2023-05-22T13:18:23;101256.81;;;24.20;38.14
63819;BME280;49970;54.976;73.248;2023-05-22T13:20:50;101257.03;;;24.19;38.46
63819;BME280;49970;54.976;73.248;2023-05-22T13:23:16;101255.34;;;24.18;38.48
63819;BME280;49970;54.976;73.248;2023-05-22T13:25:43;101258.38;;;24.15;38.41
63819;BME280;49970;54.976;73.248;2023-05-22T13:28:09;101259.22;;;24.15;38.72
63819;BME280;49970;54.976;73.248;2023-05-22T13:30:35;101258.38;;;24.15;38.76
63819;BME280;49970;54.976;73.248;2023-05-22T13:33:01;101256.69;;;24.14;38.49
63819;BME280;49970;54.976;73.248;2023-05-22T13:35:27;101252.13;;;24.14;39.18
63819;BME280;49970;54.976;73.248;2023-05-22T13:37:54;101255.69;;;24.15;39.48
63819;BME280;49970;54.976;73.248;2023-05-22T13:40:20;101250.25;;;24.15;38.89
63819;BME280;49970;54.976;73.248;2023-05-22T13:42:46;101255.88;;;24.13;39.48
63819;BME280;49970;54.976;73.248;2023-05-22T13:45:12;101244.53;;;24.09;38.94
63819;BME280;49970;54.976;73.248;2023-05-22T13:47:38;101248.63;;;24.05;39.32
63819;BME280;49970;54.976;73.248;2023-05-22T13:50:05;101252.50;;;24.03;38.88
63819;BME280;49970;54.976;73.248;2023-05-22T13:52:32;101258.28;;;24.00;39.14
63819;BME280;49970;54.976;73.248;2023-05-22T13:54:59;101247.28;;;23.93;39.40
63819;BME280;49970;54.976;73.248;2023-05-22T13:57:25;101252.06;;;23.91;39.40
63819;BME280;49970;54.976;73.248;2023-05-22T13:59:51;101251.69;;;23.86;39.63
63819;BME280;49970;54.976;73.248;2023-05-22T14:02:17;101249.69;;;23.80;40.02
63819;BME280;49970;54.976;73.248;2023-05-22T14:08:56;101241.44;;;23.65;40.55
63819;BME280;49970;54.976;73.248;2023-05-22T14:12:49;101240.06;;;23.61;40.21